Time;durP1;ratioP1;P1;durP2;ratioP2;P2;SDS_P1;SDS_P2;PMS_P1;PMS_P2;Temp;Humidity;BMP_temperature;BMP_pressure;BME280_temperature;BME280_humidity;BME280_pressure;Samples;Min_cycle;Max_cycle;Signal;HPM_P1;HPM_P2
2022/03/17 00:02:08;;;;;;;;;;;;;;;3.04;85.59;99382.51;1654591;86;26027;-85
2022/03/17 00:04:34;;;;;;;;;;;;;;;3.14;85.91;99383.13;1617461;88;24451;-85
2022/03/17 00:07:00;;;;;;;;;;;;;;;3.25;86.24;99385.00;1613139;87;20321;-85
2022/03/17 00:09:27;;;;;;;;;;;;;;;3.27;86.52;99384.06;1618074;87;25158;-85
2022/03/17 00:11:53;;;;;;;;;;;;;;;3.26;86.71;99380.23;1614152;88;22007;-87
2022/03/17 00:14:20;;;;;;;;;;;;;;;3.27;86.89;99381.95;1617873;87;26194;-86
2022/03/17 00:16:46;;;;;;;;;;;;;;;3.28;87.06;99383.17;1613625;88;24512;-86
2022/03/17 00:19:12;;;;;;;;;;;;;;;3.37;87.28;99379.52;1612660;88;20253;-86
2022/03/17 00:21:38;;;;;;;;;;;;;;;3.32;87.40;99381.38;1642645;86;24963;-86
2022/03/17 00:24:09;;;;;;;;;;;;;;;3.18;87.42;99377.83;1629187;87;21984;-85
2022/03/17 00:26:36;;;;;;;;;;;;;;;3.04;87.41;99380.36;1630454;87;26124;-86
2022/03/17 00:29:03;;;;;;;;;;;;;;;2.91;87.42;99375.92;1629821;87;24464;-86
2022/03/17 00:31:29;;;;;;;;;;;;;;;2.73;87.40;99368.59;1632294;87;20518;-85
2022/03/17 00:33:55;;;;;;;;;;;;;;;2.54;87.33;99375.94;1629726;87;25033;-85
2022/03/17 00:36:21;;;;;;;;;;;;;;;2.43;87.35;99374.88;1632425;87;21900;-86
2022/03/17 00:38:49;;;;;;;;;;;;;;;2.31;87.40;99365.25;1626803;87;26603;-85
2022/03/17 00:41:16;;;;;;;;;;;;;;;2.25;87.48;99371.39;1627108;87;24523;-85
2022/03/17 00:43:42;;;;;;;;;;;;;;;2.33;87.75;99364.34;1632316;87;20278;-85
2022/03/17 00:46:08;;;;;;;;;;;;;;;2.50;88.17;99358.81;1630609;87;25201;-85
2022/03/17 00:48:34;;;;;;;;;;;;;;;2.61;88.51;99366.31;1632491;87;22028;-84
2022/03/17 00:51:00;;;;;;;;;;;;;;;2.63;88.71;99367.96;1626607;87;21152;-84
2022/03/17 00:53:26;;;;;;;;;;;;;;;2.66;88.93;99366.62;1656709;86;24553;-85
2022/03/17 00:55:52;;;;;;;;;;;;;;;2.71;89.18;99365.22;1657843;85;20537;-84
2022/03/17 00:58:18;;;;;;;;;;;;;;;2.71;89.33;99371.67;1650188;86;24944;-85
2022/03/17 01:00:44;;;;;;;;;;;;;;;2.67;89.43;99368.77;1648899;86;22052;-85
2022/03/17 01:03:11;;;;;;;;;;;;;;;2.64;89.51;99370.95;1657052;85;26742;-86
2022/03/17 01:05:39;;;;;;;;;;;;;;;2.55;89.58;99368.59;1648063;85;24520;-85
2022/03/17 01:08:05;;;;;;;;;;;;;;;2.39;89.52;99379.72;1654400;86;20380;-85
2022/03/17 01:10:32;;;;;;;;;;;;;;;2.28;89.53;99372.64;1653969;85;25887;-85
2022/03/17 01:12:58;;;;;;;;;;;;;;;2.19;89.56;99377.98;1655983;86;22204;-84
2022/03/17 01:15:24;;;;;;;;;;;;;;;2.13;89.64;99379.39;1652966;86;25951;-84
2022/03/17 01:17:51;;;;;;;;;;;;;;;2.09;89.77;99382.93;1653740;85;24347;-86
2022/03/17 01:20:17;;;;;;;;;;;;;;;2.05;89.89;99376.98;1648956;86;20572;-86
2022/03/17 01:22:43;;;;;;;;;;;;;;;1.99;89.97;99377.55;1652394;86;25025;-87
2022/03/17 01:25:09;;;;;;;;;;;;;;;1.97;90.15;99375.42;1652102;86;21975;-86
2022/03/17 01:27:35;;;;;;;;;;;;;;;2.05;90.44;99373.55;1649845;86;26214;-86
2022/03/17 01:30:02;;;;;;;;;;;;;;;2.12;90.76;99367.83;1652663;86;24510;-86
2022/03/17 01:32:31;;;;;;;;;;;;;;;2.19;91.04;99368.09;1652733;86;20447;-86
2022/03/17 01:34:57;;;;;;;;;;;;;;;2.30;91.41;99366.98;1654317;86;25160;-86
2022/03/17 01:37:23;;;;;;;;;;;;;;;2.35;91.69;99363.85;1652072;86;22943;-86
2022/03/17 01:39:49;;;;;;;;;;;;;;;2.44;91.94;99366.69;1654059;86;26083;-86
2022/03/17 01:42:15;;;;;;;;;;;;;;;2.44;92.07;99362.82;1655576;85;24520;-86
2022/03/17 01:44:41;;;;;;;;;;;;;;;2.42;92.09;99361.99;1657174;86;20233;-86
2022/03/17 01:49:52;;;;;;;;;;;;;;;2.32;92.09;99375.55;1653436;85;22193;-86
2022/03/17 01:52:18;;;;;;;;;;;;;;;2.30;92.09;99376.45;1652785;85;26044;-86
2022/03/17 01:54:44;;;;;;;;;;;;;;;2.29;92.16;99381.23;1653938;86;24520;-86
2022/03/17 01:57:11;;;;;;;;;;;;;;;2.30;92.25;99390.66;1652741;85;20365;-86
2022/03/17 01:59:38;;;;;;;;;;;;;;;2.18;92.23;99388.36;1650416;85;24835;-86
2022/03/17 02:02:05;;;;;;;;;;;;;;;2.16;92.30;99389.67;1632453;87;21433;-86
2022/03/17 02:04:31;;;;;;;;;;;;;;;2.28;92.54;99389.42;1655560;85;26807;-86
2022/03/17 02:06:57;;;;;;;;;;;;;;;2.40;92.79;99390.42;1645418;87;24587;-86
2022/03/17 02:09:26;;;;;;;;;;;;;;;2.39;92.92;99395.21;1650821;87;20645;-86
2022/03/17 02:14:51;;;;;;;;;;;;;;;2.19;92.88;99396.49;1651306;87;22155;-86
2022/03/17 02:17:17;;;;;;;;;;;;;;;2.05;92.78;99401.52;1651350;86;26239;-87
2022/03/17 02:19:44;;;;;;;;;;;;;;;2.03;92.82;99404.55;1651366;86;24467;-86
2022/03/17 02:22:12;;;;;;;;;;;;;;;2.19;93.07;99399.08;1650785;87;20483;-87
2022/03/17 02:27:25;;;;;;;;;;;;;;;2.13;93.14;99412.14;1651195;86;22150;-85
2022/03/17 02:29:53;;;;;;;;;;;;;;;2.01;93.06;99411.50;1651695;87;26096;-85
2022/03/17 02:32:20;;;;;;;;;;;;;;;1.96;92.99;99417.63;1651124;87;24441;-85
2022/03/17 02:34:46;;;;;;;;;;;;;;;1.95;93.04;99423.67;1650446;87;20234;-85
2022/03/17 02:37:12;;;;;;;;;;;;;;;1.98;93.19;99427.03;1651656;87;25029;-85
2022/03/17 02:39:39;;;;;;;;;;;;;;;1.92;93.28;99432.31;1651493;87;21960;-85
2022/03/17 02:42:05;;;;;;;;;;;;;;;1.81;93.30;99434.67;1651766;86;25979;-85
2022/03/17 02:44:32;;;;;;;;;;;;;;;1.76;93.34;99432.62;1648354;86;24428;-85
2022/03/17 02:46:59;;;;;;;;;;;;;;;1.76;93.47;99441.22;1636065;87;20471;-85
2022/03/17 02:49:26;;;;;;;;;;;;;;;1.70;93.54;99437.45;1648435;86;25151;-85
2022/03/17 02:51:54;;;;;;;;;;;;;;;1.64;93.65;99444.02;1661217;85;22101;-85
2022/03/17 02:54:20;;;;;;;;;;;;;;;1.48;93.63;99448.59;1645555;86;26086;-86
2022/03/17 02:56:46;;;;;;;;;;;;;;;1.41;93.67;99447.45;1652097;87;24661;-85
2022/03/17 02:59:12;;;;;;;;;;;;;;;1.38;93.80;99448.78;1651552;87;20216;-85
2022/03/17 03:01:39;;;;;;;;;;;;;;;1.36;93.96;99447.97;1651481;87;20234;-85
2022/03/17 03:04:06;;;;;;;;;;;;;;;1.28;94.05;99439.50;1653610;86;22181;-85
2022/03/17 03:06:32;;;;;;;;;;;;;;;1.25;94.22;99440.41;1651168;86;26140;-85
2022/03/17 03:08:59;;;;;;;;;;;;;;;1.30;94.46;99439.90;1632612;87;24498;-85
2022/03/17 03:11:25;;;;;;;;;;;;;;;1.52;94.91;99448.12;1617952;87;20257;-85
2022/03/17 03:13:51;;;;;;;;;;;;;;;1.74;95.37;99445.58;1645240;86;25681;-85
2022/03/17 03:16:17;;;;;;;;;;;;;;;1.89;95.74;99458.19;1649309;86;20325;-85
2022/03/17 03:18:44;;;;;;;;;;;;;;;2.02;96.04;99461.38;1652273;86;25487;-85
2022/03/17 03:21:10;;;;;;;;;;;;;;;2.04;96.21;99466.08;1651346;87;24624;-85
2022/03/17 03:23:41;;;;;;;;;;;;;;;1.99;96.29;99471.33;1651543;86;20255;-85
2022/03/17 03:26:04;;;;;;;;;;;;;;;1.89;96.25;99476.70;1650992;87;25014;-86
2022/03/17 03:28:30;;;;;;;;;;;;;;;1.85;96.22;99477.64;1651607;87;22091;-86
2022/03/17 03:30:57;;;;;;;;;;;;;;;1.83;96.23;99478.95;1651165;86;26066;-86
2022/03/17 03:33:25;;;;;;;;;;;;;;;1.67;96.11;99474.94;1651440;87;25262;-86
2022/03/17 03:38:38;;;;;;;;;;;;;;;1.40;95.92;99469.81;1651985;87;25264;-85
2022/03/17 03:41:04;;;;;;;;;;;;;;;1.39;96.01;99471.11;1651587;87;21977;-85
2022/03/17 03:43:32;;;;;;;;;;;;;;;1.42;96.17;99468.50;1651606;87;26182;-85
2022/03/17 03:46:04;;;;;;;;;;;;;;;1.42;96.34;99468.50;1651394;87;25332;-85
2022/03/17 03:48:31;;;;;;;;;;;;;;;1.40;96.50;99458.64;1652534;87;20316;-85
2022/03/17 03:50:58;;;;;;;;;;;;;;;1.36;96.61;99454.41;1652053;87;24990;-85
2022/03/17 03:54:12;;;;;;;;;;;;;;;1.29;96.66;99459.25;1643310;87;21838;-85
2022/03/17 03:55:51;;;;;;;;;;;;;;;1.21;96.72;99451.19;1648634;86;25531;-85
2022/03/17 03:58:24;;;;;;;;;;;;;;;1.15;96.74;99448.70;1651567;87;25119;-85
2022/03/17 04:00:50;;;;;;;;;;;;;;;1.08;96.70;99445.84;1640124;87;20228;-85
2022/03/17 04:03:16;;;;;;;;;;;;;;;1.01;96.70;99458.39;1633574;86;25258;-85
2022/03/17 04:05:42;;;;;;;;;;;;;;;1.02;96.85;99454.95;1636557;87;20319;-85
2022/03/17 04:08:09;;;;;;;;;;;;;;;1.01;96.98;99453.23;1635533;87;26031;-85
2022/03/17 04:10:35;;;;;;;;;;;;;;;1.08;97.17;99451.42;1632614;87;24543;-85
2022/03/17 04:13:02;;;;;;;;;;;;;;;1.20;97.51;99447.38;1630682;87;20413;-85
2022/03/17 04:15:28;;;;;;;;;;;;;;;1.35;97.87;99446.27;1633417;87;25034;-85
2022/03/17 04:17:54;;;;;;;;;;;;;;;1.50;98.21;99442.13;1633461;87;20262;-85
2022/03/17 04:20:22;;;;;;;;;;;;;;;1.58;98.46;99441.57;1632171;87;26052;-85
2022/03/17 04:22:48;;;;;;;;;;;;;;;1.63;98.68;99438.03;1633082;86;24484;-85
2022/03/17 04:25:14;;;;;;;;;;;;;;;1.62;98.80;99435.47;1630626;87;20330;-86
2022/03/17 04:27:41;;;;;;;;;;;;;;;1.54;98.78;99438.61;1636828;87;24836;-85
2022/03/17 04:30:08;;;;;;;;;;;;;;;1.52;98.83;99434.79;1636085;87;22064;-84
2022/03/17 04:32:34;;;;;;;;;;;;;;;1.53;98.89;99442.06;1631505;87;26062;-85
2022/03/17 04:35:00;;;;;;;;;;;;;;;1.62;99.08;99441.92;1632355;87;24517;-85
2022/03/17 04:37:27;;;;;;;;;;;;;;;1.58;99.07;99443.68;1635364;86;20937;-85
2022/03/17 04:39:53;;;;;;;;;;;;;;;1.39;98.85;99440.17;1632843;87;25875;-85
2022/03/17 04:42:19;;;;;;;;;;;;;;;1.18;98.62;99440.94;1633237;87;22074;-85
2022/03/17 04:44:45;;;;;;;;;;;;;;;0.98;98.32;99433.97;1638921;87;26432;-84
2022/03/17 04:47:11;;;;;;;;;;;;;;;0.78;97.99;99438.55;1653469;85;24436;-84
2022/03/17 04:49:37;;;;;;;;;;;;;;;0.63;97.75;99440.06;1654528;86;20139;-84
2022/03/17 04:53:26;;;;;;;;;;;;;;;0.53;97.69;99432.05;1650873;85;20336;-84
2022/03/17 04:54:34;;;;;;;;;;;;;;;0.40;97.65;99429.63;1646903;86;22662;-84
2022/03/17 04:57:00;;;;;;;;;;;;;;;0.29;97.64;99434.06;1651567;86;26063;-84
2022/03/17 04:59:26;;;;;;;;;;;;;;;0.26;97.80;99439.27;1649890;85;24541;-85
2022/03/17 05:01:52;;;;;;;;;;;;;;;0.24;98.03;99439.70;1659827;85;20218;-85
2022/03/17 05:04:18;;;;;;;;;;;;;;;0.23;98.27;99445.72;1659025;86;25117;-84
2022/03/17 05:06:44;;;;;;;;;;;;;;;0.26;98.56;99446.14;1659434;86;22215;-85
2022/03/17 05:09:10;;;;;;;;;;;;;;;0.27;98.89;99444.80;1660914;86;26063;-85
2022/03/17 05:11:37;;;;;;;;;;;;;;;0.30;99.23;99443.50;1654660;85;24266;-85
2022/03/17 05:14:03;;;;;;;;;;;;;;;0.39;99.63;99447.66;1659976;85;20269;-84
2022/03/17 05:16:38;;;;;;;;;;;;;;;0.39;99.96;99451.53;1660789;86;25747;-84
2022/03/17 05:19:04;;;;;;;;;;;;;;;0.43;100.00;99468.66;1660333;86;21924;-84
2022/03/17 05:21:32;;;;;;;;;;;;;;;0.44;100.00;99469.05;1658239;86;25956;-85
2022/03/17 05:23:58;;;;;;;;;;;;;;;0.50;100.00;99473.28;1641606;85;24515;-85
2022/03/17 05:26:24;;;;;;;;;;;;;;;0.55;100.00;99475.35;1660207;86;20219;-85
2022/03/17 05:28:50;;;;;;;;;;;;;;;0.62;100.00;99476.98;1623687;88;24990;-85
2022/03/17 05:31:16;;;;;;;;;;;;;;;0.71;100.00;99477.70;1621885;87;22699;-85
2022/03/17 05:33:42;;;;;;;;;;;;;;;0.94;100.00;99481.69;1620004;87;21158;-85
2022/03/17 05:36:08;;;;;;;;;;;;;;;1.10;100.00;99488.31;1619543;87;24506;-85
2022/03/17 05:38:34;;;;;;;;;;;;;;;1.20;100.00;99489.44;1630035;87;20251;-84
2022/03/17 05:41:00;;;;;;;;;;;;;;;1.32;100.00;99491.42;1632187;88;25040;-85
2022/03/17 05:43:27;;;;;;;;;;;;;;;1.44;100.00;99492.52;1645729;87;22064;-84
2022/03/17 05:45:53;;;;;;;;;;;;;;;1.50;100.00;99493.71;1646606;87;25809;-84
2022/03/17 05:48:19;;;;;;;;;;;;;;;1.59;100.00;99498.70;1643372;87;24473;-84
2022/03/17 05:50:45;;;;;;;;;;;;;;;1.65;100.00;99503.77;1642074;87;20160;-84
2022/03/17 05:53:11;;;;;;;;;;;;;;;1.75;100.00;99510.91;1647427;87;24424;-84
2022/03/17 05:55:37;;;;;;;;;;;;;;;1.82;100.00;99515.95;1642750;87;22039;-85
2022/03/17 05:58:04;;;;;;;;;;;;;;;1.98;100.00;99522.98;1660958;86;25970;-84
2022/03/17 06:00:30;;;;;;;;;;;;;;;2.12;100.00;99522.74;1658988;86;24429;-84
2022/03/17 06:02:57;;;;;;;;;;;;;;;2.20;100.00;99520.42;1653932;86;20721;-85
2022/03/17 06:05:24;;;;;;;;;;;;;;;2.26;100.00;99523.33;1658153;86;24956;-85
2022/03/17 06:07:52;;;;;;;;;;;;;;;2.31;100.00;99524.09;1651645;85;21977;-85
2022/03/17 06:10:26;;;;;;;;;;;;;;;2.35;100.00;99523.98;1651563;86;26710;-84
2022/03/17 06:12:54;;;;;;;;;;;;;;;2.45;100.00;99522.10;1654889;85;24517;-84
2022/03/17 06:15:26;;;;;;;;;;;;;;;2.37;100.00;99524.83;1654928;86;20265;-85
2022/03/17 06:17:53;;;;;;;;;;;;;;;2.23;100.00;99527.27;1651169;86;25595;-85
2022/03/17 06:20:21;;;;;;;;;;;;;;;2.10;100.00;99530.08;1654916;85;22864;-85
2022/03/17 06:22:48;;;;;;;;;;;;;;;2.03;100.00;99528.47;1657833;86;25969;-85
2022/03/17 06:25:15;;;;;;;;;;;;;;;1.98;100.00;99530.72;1656557;86;24503;-85
2022/03/17 06:27:43;;;;;;;;;;;;;;;1.96;100.00;99539.80;1656015;86;20504;-84
2022/03/17 06:30:11;;;;;;;;;;;;;;;1.95;100.00;99539.83;1654602;86;24993;-85
2022/03/17 06:32:39;;;;;;;;;;;;;;;1.93;100.00;99535.97;1656852;86;22015;-85
2022/03/17 06:35:10;;;;;;;;;;;;;;;1.92;100.00;99543.30;1652928;85;27393;-85
2022/03/17 06:37:37;;;;;;;;;;;;;;;1.89;100.00;99541.22;1651052;85;24569;-85
2022/03/17 06:40:04;;;;;;;;;;;;;;;1.89;100.00;99546.38;1651635;85;20493;-85
2022/03/17 06:42:34;;;;;;;;;;;;;;;1.94;100.00;99551.02;1657273;86;24989;-85
2022/03/17 06:44:58;;;;;;;;;;;;;;;1.99;100.00;99555.23;1651716;85;21981;-85
2022/03/17 06:47:30;;;;;;;;;;;;;;;2.04;100.00;99552.56;1655727;86;26665;-85
2022/03/17 06:49:56;;;;;;;;;;;;;;;2.08;100.00;99559.36;1650573;85;24546;-85
2022/03/17 06:52:23;;;;;;;;;;;;;;;2.17;100.00;99562.23;1656507;85;20241;-85
2022/03/17 06:54:50;;;;;;;;;;;;;;;2.35;100.00;99569.63;1653485;86;25040;-85
2022/03/17 06:57:23;;;;;;;;;;;;;;;2.52;100.00;99574.04;1654245;86;22833;-85
2022/03/17 06:59:49;;;;;;;;;;;;;;;2.62;100.00;99578.14;1651344;86;25993;-84
2022/03/17 07:02:16;;;;;;;;;;;;;;;2.63;100.00;99574.69;1653807;86;24418;-84
2022/03/17 07:04:43;;;;;;;;;;;;;;;2.68;100.00;99580.61;1650032;86;21024;-84
2022/03/17 07:07:11;;;;;;;;;;;;;;;2.69;100.00;99578.44;1650826;85;25696;-84
2022/03/17 07:09:37;;;;;;;;;;;;;;;2.68;100.00;99581.91;1632929;87;22071;-84
2022/03/17 07:12:04;;;;;;;;;;;;;;;2.75;100.00;99588.66;1632519;87;26047;-84
2022/03/17 07:14:30;;;;;;;;;;;;;;;2.85;100.00;99593.20;1655546;84;24599;-84
2022/03/17 07:16:56;;;;;;;;;;;;;;;3.05;100.00;99600.56;1660829;85;20378;-84
2022/03/17 07:19:22;;;;;;;;;;;;;;;3.20;100.00;99604.97;1645394;87;24995;-84
2022/03/17 07:21:48;;;;;;;;;;;;;;;3.09;100.00;99592.70;1651349;86;21956;-84
2022/03/17 07:24:15;;;;;;;;;;;;;;;2.98;100.00;99595.96;1651940;87;26086;-85
2022/03/17 07:26:42;;;;;;;;;;;;;;;2.91;100.00;99595.23;1651985;87;24487;-85
2022/03/17 07:29:09;;;;;;;;;;;;;;;2.86;100.00;99594.47;1650899;87;20262;-85
2022/03/17 07:31:35;;;;;;;;;;;;;;;2.84;100.00;99595.37;1651818;87;24905;-85
2022/03/17 07:34:01;;;;;;;;;;;;;;;2.81;100.00;99591.13;1651612;85;22589;-85
2022/03/17 07:36:28;;;;;;;;;;;;;;;2.83;100.00;99597.57;1650474;87;25885;-85
2022/03/17 07:38:55;;;;;;;;;;;;;;;2.85;100.00;99591.47;1651835;87;24504;-85
2022/03/17 07:41:21;;;;;;;;;;;;;;;2.86;100.00;99591.89;1652254;86;20299;-85
2022/03/17 07:43:47;;;;;;;;;;;;;;;2.85;100.00;99592.77;1645495;86;24984;-84
2022/03/17 07:46:13;;;;;;;;;;;;;;;2.82;100.00;99591.55;1656607;85;22037;-85
2022/03/17 07:48:41;;;;;;;;;;;;;;;2.98;100.00;99611.47;1660860;85;26004;-85
2022/03/17 07:51:11;;;;;;;;;;;;;;;3.08;100.00;99614.71;1645672;86;25981;-85
2022/03/17 07:53:38;;;;;;;;;;;;;;;3.24;100.00;99617.38;1645341;86;20330;-84
2022/03/17 07:56:05;;;;;;;;;;;;;;;3.33;100.00;99615.88;1655515;85;25075;-85
2022/03/17 07:58:32;;;;;;;;;;;;;;;3.35;100.00;99618.00;1645516;86;22071;-86
2022/03/17 08:00:59;;;;;;;;;;;;;;;3.38;100.00;99611.48;1652448;85;25469;-85
2022/03/17 08:03:26;;;;;;;;;;;;;;;3.40;100.00;99612.72;1624383;88;25240;-85
2022/03/17 08:05:52;;;;;;;;;;;;;;;3.45;100.00;99610.45;1654860;85;20487;-85
2022/03/17 08:08:19;;;;;;;;;;;;;;;3.53;100.00;99609.84;1652111;86;25200;-85
2022/03/17 08:10:46;;;;;;;;;;;;;;;3.58;100.00;99609.30;1657255;86;21998;-85
2022/03/17 08:13:12;;;;;;;;;;;;;;;3.65;100.00;99604.83;1655347;86;26009;-85
2022/03/17 08:15:41;;;;;;;;;;;;;;;3.68;100.00;99610.78;1625503;86;20174;-84
2022/03/17 08:18:07;;;;;;;;;;;;;;;3.74;100.00;99611.08;1656440;86;20634;-84
2022/03/17 08:20:38;;;;;;;;;;;;;;;3.83;100.00;99614.73;1659761;86;24996;-85
2022/03/17 08:23:04;;;;;;;;;;;;;;;3.92;100.00;99612.39;1656681;85;22078;-85
2022/03/17 08:25:30;;;;;;;;;;;;;;;4.00;100.00;99608.71;1657199;86;26828;-84
2022/03/17 08:27:57;;;;;;;;;;;;;;;4.05;100.00;99614.63;1656012;85;20368;-84
2022/03/17 08:30:23;;;;;;;;;;;;;;;4.12;100.00;99614.89;1652447;85;20341;-84
2022/03/17 08:32:49;;;;;;;;;;;;;;;4.20;100.00;99613.38;1658032;86;20824;-86
2022/03/17 08:35:17;;;;;;;;;;;;;;;4.28;100.00;99621.83;1658156;86;21953;-85
2022/03/17 08:37:44;;;;;;;;;;;;;;;4.34;100.00;99614.34;1656150;86;26712;-85
2022/03/17 08:40:10;;;;;;;;;;;;;;;4.44;100.00;99621.84;1653080;86;24800;-85
2022/03/17 08:42:37;;;;;;;;;;;;;;;4.50;100.00;99620.83;1654228;86;20312;-85
2022/03/17 08:49:18;;;;;;;;;;;;;;;4.57;100.00;99618.05;1653293;86;25042;-85
2022/03/17 08:50:16;;;;;;;;;;;;;;;4.77;100.00;99623.98;1655232;85;26887;-85
2022/03/17 08:52:42;;;;;;;;;;;;;;;4.87;100.00;99623.27;1658997;85;20362;-85
2022/03/17 08:55:10;;;;;;;;;;;;;;;4.93;100.00;99623.10;1655452;86;20478;-85
2022/03/17 08:57:36;;;;;;;;;;;;;;;4.99;100.00;99621.63;1657321;86;24968;-85
2022/03/17 09:00:06;;;;;;;;;;;;;;;5.03;100.00;99616.31;1656491;85;22081;-85
2022/03/17 09:02:30;;;;;;;;;;;;;;;5.12;100.00;99615.66;1653998;85;26241;-86
2022/03/17 09:05:01;;;;;;;;;;;;;;;5.13;100.00;99613.00;1652707;85;24478;-85
2022/03/17 09:07:27;;;;;;;;;;;;;;;5.20;100.00;99613.23;1650290;86;20350;-86
2022/03/17 09:09:53;;;;;;;;;;;;;;;5.29;100.00;99610.83;1625390;88;25034;-85
2022/03/17 09:12:19;;;;;;;;;;;;;;;5.41;100.00;99609.14;1645526;86;21838;-85
2022/03/17 09:14:47;;;;;;;;;;;;;;;5.50;100.00;99609.33;1657871;85;26049;-85
2022/03/17 09:17:13;;;;;;;;;;;;;;;5.56;100.00;99607.41;1663253;85;24430;-85
2022/03/17 09:19:39;;;;;;;;;;;;;;;5.67;100.00;99609.22;1656703;85;20263;-85
2022/03/17 09:22:08;;;;;;;;;;;;;;;5.74;100.00;99608.55;1624883;88;25067;-86
2022/03/17 09:24:33;;;;;;;;;;;;;;;5.80;100.00;99611.81;1645199;86;22009;-85
2022/03/17 09:26:59;;;;;;;;;;;;;;;5.86;100.00;99614.66;1649293;87;26154;-86
2022/03/17 09:29:28;;;;;;;;;;;;;;;5.89;100.00;99616.73;1651412;87;24413;-86
2022/03/17 09:31:54;;;;;;;;;;;;;;;5.96;100.00;99613.50;1650989;87;20242;-85
2022/03/17 09:34:20;;;;;;;;;;;;;;;6.02;100.00;99609.84;1651603;87;25156;-86
2022/03/17 09:36:46;;;;;;;;;;;;;;;6.11;100.00;99616.07;1651602;87;22012;-85
2022/03/17 09:41:57;;;;;;;;;;;;;;;6.28;100.00;99619.78;1651421;86;24506;-84
2022/03/17 09:44:23;;;;;;;;;;;;;;;6.36;100.00;99624.73;1650122;87;20368;-85
2022/03/17 09:46:50;;;;;;;;;;;;;;;6.43;100.00;99624.09;1652382;87;25243;-85
2022/03/17 09:49:17;;;;;;;;;;;;;;;6.51;100.00;99622.91;1651410;87;22027;-85
2022/03/17 09:51:44;;;;;;;;;;;;;;;6.55;100.00;99619.73;1651992;87;25985;-85
2022/03/17 09:54:11;;;;;;;;;;;;;;;6.61;100.00;99619.53;1651942;87;25100;-85
2022/03/17 09:56:37;;;;;;;;;;;;;;;6.67;100.00;99616.72;1651877;87;20306;-85
2022/03/17 09:59:06;;;;;;;;;;;;;;;6.70;100.00;99616.62;1651978;87;25009;-86
2022/03/17 10:01:32;;;;;;;;;;;;;;;6.71;100.00;99612.65;1650894;86;22119;-84
2022/03/17 10:03:59;;;;;;;;;;;;;;;6.76;100.00;99612.52;1636145;87;26259;-85
2022/03/17 10:06:25;;;;;;;;;;;;;;;6.85;100.00;99614.78;1634227;87;24418;-85
2022/03/17 10:08:51;;;;;;;;;;;;;;;6.94;100.00;99621.39;1633821;87;20482;-85
2022/03/17 10:11:22;;;;;;;;;;;;;;;6.97;100.00;99622.14;1653645;86;25092;-85
2022/03/17 10:13:49;;;;;;;;;;;;;;;7.04;100.00;99614.48;1622275;87;22648;-85
2022/03/17 10:16:17;;;;;;;;;;;;;;;7.12;100.00;99622.88;1616612;88;26693;-85
2022/03/17 10:18:45;;;;;;;;;;;;;;;7.13;100.00;99616.77;1611641;88;24483;-85
2022/03/17 10:21:12;;;;;;;;;;;;;;;7.17;99.75;99620.55;1654183;86;20219;-85
2022/03/17 10:23:46;;;;;;;;;;;;;;;7.18;99.14;99607.94;1648311;86;25166;-85
2022/03/17 10:26:14;;;;;;;;;;;;;;;7.22;98.59;99616.88;1648442;86;22204;-86
2022/03/17 10:28:40;;;;;;;;;;;;;;;7.29;98.12;99614.89;1644599;86;26136;-86
2022/03/17 10:31:08;;;;;;;;;;;;;;;7.39;97.69;99611.03;1651643;86;24560;-85
2022/03/17 10:33:34;;;;;;;;;;;;;;;7.53;97.36;99608.73;1651956;86;20195;-85
2022/03/17 10:36:19;;;;;;;;;;;;;;;7.63;96.93;99614.01;1651490;86;24959;-85
2022/03/17 10:38:43;;;;;;;;;;;;;;;7.69;96.28;99610.31;1651069;86;22137;-86
2022/03/17 10:41:11;;;;;;;;;;;;;;;7.77;95.70;99606.94;1650234;86;26019;-86
2022/03/17 10:43:38;;;;;;;;;;;;;;;7.83;95.08;99610.16;1648061;86;24132;-86
2022/03/17 10:46:05;;;;;;;;;;;;;;;7.92;94.74;99605.86;1611431;86;20247;-86
2022/03/17 10:48:31;;;;;;;;;;;;;;;7.96;94.21;99598.30;1653029;85;25123;-86
2022/03/17 10:50:57;;;;;;;;;;;;;;;8.03;93.86;99604.13;1651359;86;22068;-86
2022/03/17 10:53:29;;;;;;;;;;;;;;;8.09;93.33;99603.88;1652008;86;21116;-86
2022/03/17 10:56:15;;;;;;;;;;;;;;;8.16;92.72;99603.17;1649486;85;24532;-86
2022/03/17 10:58:42;;;;;;;;;;;;;;;8.17;92.03;99596.60;1607974;89;20484;-86
2022/03/17 11:01:08;;;;;;;;;;;;;;;8.19;91.12;99597.36;1634894;87;25098;-86
2022/03/17 11:03:34;;;;;;;;;;;;;;;8.25;90.50;99597.11;1657300;86;22107;-86
2022/03/17 11:06:01;;;;;;;;;;;;;;;8.35;90.08;99595.84;1638748;86;26021;-85
2022/03/17 11:08:28;;;;;;;;;;;;;;;8.38;89.48;99598.34;1643091;87;25302;-86
2022/03/17 11:10:54;;;;;;;;;;;;;;;8.35;88.60;99594.54;1641183;87;20221;-86
2022/03/17 11:13:20;;;;;;;;;;;;;;;8.39;87.90;99600.50;1636985;87;24986;-86
2022/03/17 11:16:01;;;;;;;;;;;;;;;8.48;87.48;99598.79;1660789;86;22046;-86
2022/03/17 11:18:27;;;;;;;;;;;;;;;8.51;86.98;99594.73;1618878;88;26019;-86
2022/03/17 11:21:12;;;;;;;;;;;;;;;8.54;86.24;99595.07;1618940;88;24525;-86
2022/03/17 11:23:55;;;;;;;;;;;;;;;8.58;85.73;99592.25;1618192;88;20275;-85
2022/03/17 11:26:18;;;;;;;;;;;;;;;8.65;85.22;99598.06;1639933;87;25089;-85
2022/03/17 11:28:46;;;;;;;;;;;;;;;8.70;84.76;99596.10;1646054;87;22121;-86
2022/03/17 11:31:13;;;;;;;;;;;;;;;8.73;84.27;99596.80;1660746;85;26139;-85
2022/03/17 11:33:41;;;;;;;;;;;;;;;8.73;83.60;99594.19;1661506;86;24491;-85
2022/03/17 11:36:10;;;;;;;;;;;;;;;8.77;82.97;99593.62;1660340;86;20252;-84
2022/03/17 11:38:37;;;;;;;;;;;;;;;8.81;82.50;99586.04;1657595;86;25640;-85
2022/03/17 11:41:16;;;;;;;;;;;;;;;8.87;82.08;99592.75;1661444;86;21903;-85
2022/03/17 11:43:53;;;;;;;;;;;;;;;8.91;81.63;99588.63;1646556;87;26002;-85
2022/03/17 11:46:22;;;;;;;;;;;;;;;9.03;81.40;99590.69;1645322;86;24541;-85
2022/03/17 11:48:54;;;;;;;;;;;;;;;9.08;80.84;99583.50;1632217;87;20287;-85
2022/03/17 11:51:18;;;;;;;;;;;;;;;9.07;79.99;99584.86;1671425;85;25229;-85
2022/03/17 11:53:47;;;;;;;;;;;;;;;9.05;79.27;99584.11;1673154;85;22265;-86
2022/03/17 11:56:32;;;;;;;;;;;;;;;9.05;78.54;99585.41;1643215;87;27020;-85
2022/03/17 11:58:58;;;;;;;;;;;;;;;9.06;77.91;99584.02;1623258;88;24471;-86
2022/03/17 12:01:27;;;;;;;;;;;;;;;9.08;77.39;99580.03;1660605;86;20556;-85
2022/03/17 12:03:55;;;;;;;;;;;;;;;9.07;76.80;99575.27;1653478;86;24964;-86
2022/03/17 12:06:22;;;;;;;;;;;;;;;9.08;76.36;99572.20;1649032;86;21965;-86
2022/03/17 12:08:58;;;;;;;;;;;;;;;9.01;75.65;99572.94;1650439;86;25957;-86
2022/03/17 12:11:24;;;;;;;;;;;;;;;9.00;74.95;99578.25;1651078;86;24712;-85
2022/03/17 12:14:09;;;;;;;;;;;;;;;9.00;74.49;99575.15;1654364;86;20231;-85
2022/03/17 12:16:40;;;;;;;;;;;;;;;9.03;74.19;99575.48;1651871;86;25050;-86
2022/03/17 12:19:06;;;;;;;;;;;;;;;9.10;73.99;99569.08;1652186;85;22163;-86
2022/03/17 12:21:50;;;;;;;;;;;;;;;9.13;73.69;99568.92;1654418;85;26011;-86
2022/03/17 12:24:39;;;;;;;;;;;;;;;9.17;73.46;99569.16;1660076;85;24626;-86
2022/03/17 12:27:13;;;;;;;;;;;;;;;9.18;73.02;99566.48;1652353;86;20457;-86
2022/03/17 12:29:40;;;;;;;;;;;;;;;9.19;72.53;99556.44;1649709;86;24997;-86
2022/03/17 12:32:07;;;;;;;;;;;;;;;9.23;72.28;99556.67;1651551;86;22668;-85
2022/03/17 12:34:34;;;;;;;;;;;;;;;9.26;71.98;99556.16;1654655;86;26075;-85
2022/03/17 12:37:01;;;;;;;;;;;;;;;9.25;71.54;99550.08;1653172;86;24491;-86
2022/03/17 12:39:30;;;;;;;;;;;;;;;9.25;71.14;99543.55;1615388;88;20824;-86
2022/03/17 12:41:57;;;;;;;;;;;;;;;9.30;71.00;99552.02;1650629;86;25069;-85
2022/03/17 12:44:25;;;;;;;;;;;;;;;9.33;70.87;99550.55;1612991;87;21965;-85
2022/03/17 12:46:51;;;;;;;;;;;;;;;9.36;70.68;99554.34;1611820;88;25831;-86
2022/03/17 12:49:20;;;;;;;;;;;;;;;9.32;70.20;99555.88;1621751;88;20293;-86
2022/03/17 12:51:46;;;;;;;;;;;;;;;9.30;69.75;99553.32;1646656;86;20554;-86
2022/03/17 12:54:16;;;;;;;;;;;;;;;9.30;69.47;99552.02;1620384;86;24981;-85
2022/03/17 12:56:46;;;;;;;;;;;;;;;9.33;69.26;99553.16;1651007;86;22119;-85
2022/03/17 12:59:12;;;;;;;;;;;;;;;9.34;69.02;99559.23;1644852;85;26073;-85
2022/03/17 13:01:40;;;;;;;;;;;;;;;9.29;68.54;99563.38;1626819;88;24519;-85
2022/03/17 13:04:06;;;;;;;;;;;;;;;9.30;68.18;99567.69;1628114;88;20383;-86
2022/03/17 13:09:16;;;;;;;;;;;;;;;9.28;67.42;99564.74;1628455;87;22038;-85
2022/03/17 13:14:29;;;;;;;;;;;;;;;9.29;66.66;99570.36;1658309;86;24414;-86
2022/03/17 13:16:59;;;;;;;;;;;;;;;9.25;66.05;99573.59;1658335;86;20207;-87